QFA35 LFPG-YPPH
Flight info
| Callsign | QFA35 |
|---|---|
| Flight time | N/A |
| Altitude | 35000 |
| Route | LANVI DCT BEGAR DCT TRA DCT GAMSA DCT GEDSO DCT PODET DCT LAKIK DCT MAVIT DCT RASUB DCT ARTAT DCT ERMUP DCT ROKVA DCT NAPIP DCT UNVUS DCT ASMOB DCT RELTU DCT APTOX DCT TEPKI DCT PIPUR DCT ORMAN DCT ERGUN DCT ASVOD DCT KONUK DCT EVSAS DCT BAYIR DCT ULTED DCT EMBAG DCT OTKEP DCT RATVO/N0497F370 DCT KEDIM DCT SOBIL DCT VAXEN DCT SISIN DCT ULDUR DCT SIDAD DCT EGVAL DCT SESRU DCT DANAL DCT IMDOX DCT LONOS DCT ORGEL DCT DATEN DCT REVAX DCT GETAL DCT DEBEN DCT GESIT DCT HAYYA DCT VELAM DCT VUTAN DCT RESAR DCT ALSEM DCT OVONA DCT PUTIB DCT BOXOT DCT KAPUM DCT BOSEV DCT MOGIM DCT IMLIP DCT ELEPO DCT SIXIV DCT KANIP DCT LABRI DCT EGROK DCT LAKLU DCT GEVED DCT TOLDA DCT EMURU DCT BONOM DCT TAVKO DCT GOLNI DCT KITAL DCT TEGOR DCT LADIB DCT METIP/N0494F390 DCT NIVUD DCT OTABI DCT OLNIK DCT POMAN DCT DOTAT DCT SEBLO DCT PADLA DCT JAVVI DCT 0719S09109E/N0486F410 115260S0950160E 1649S09831E 235560S1044060E 2818S10913E DCT OPEGA DCT KAGMI |
| Aircraft | B789/H-SDE1E2E3FGHIJ2J3J4J5M1RWXY/LB1D1 |
Departure
| Time | N/A |
|---|---|
| Airport | Charles de Gaulle International Airport (LFPG) |
Arrival
| Time | 2026-05-06 04:10 |
|---|---|
| Airport | Perth International Airport (YPPH) |
| Time | Latitude | Longitude | Altitude | Speed | Heading |
|---|---|---|---|---|---|
| 2026-05-05 23:57 | -7.75057 | 91.51330 | 38855 ft | 496 kts | 140° |
| 2026-05-05 23:57 | -7.77725 | 91.53568 | 38854 ft | 501 kts | 140° |
| 2026-05-05 23:58 | -7.83114 | 91.58088 | 38861 ft | 505 kts | 140° |
| 2026-05-05 23:58 | -7.88515 | 91.62620 | 38863 ft | 504 kts | 140° |
| 2026-05-05 23:59 | -7.93871 | 91.67115 | 38867 ft | 504 kts | 140° |
| 2026-05-05 23:59 | -7.99252 | 91.71633 | 38868 ft | 503 kts | 140° |
| 2026-05-06 00:00 | -8.04626 | 91.76147 | 38865 ft | 502 kts | 140° |
| 2026-05-06 00:00 | -8.10008 | 91.80669 | 38949 ft | 505 kts | 140° |
| 2026-05-06 00:01 | -8.12710 | 91.82940 | 39162 ft | 505 kts | 140° |
| 2026-05-06 00:01 | -8.15400 | 91.85201 | 39344 ft | 504 kts | 140° |
| 2026-05-06 00:01 | -8.18095 | 91.87467 | 39548 ft | 504 kts | 140° |
| 2026-05-06 00:01 | -8.20785 | 91.89729 | 39727 ft | 503 kts | 140° |
| 2026-05-06 00:02 | -8.23479 | 91.91995 | 39857 ft | 505 kts | 140° |
| 2026-05-06 00:02 | -8.26176 | 91.94263 | 39850 ft | 506 kts | 140° |
| 2026-05-06 00:02 | -8.31571 | 91.98803 | 39854 ft | 502 kts | 140° |
| 2026-05-06 00:03 | -8.36930 | 92.03314 | 39855 ft | 502 kts | 140° |
| 2026-05-06 00:03 | -8.42305 | 92.07841 | 39854 ft | 503 kts | 140° |
| 2026-05-06 00:04 | -8.47686 | 92.12373 | 39863 ft | 504 kts | 140° |
| 2026-05-06 00:04 | -8.53079 | 92.16919 | 39862 ft | 504 kts | 140° |
| 2026-05-06 00:05 | -8.61145 | 92.23719 | 39867 ft | 503 kts | 140° |
| 2026-05-06 00:06 | -8.66486 | 92.28225 | 39867 ft | 504 kts | 140° |
| 2026-05-06 00:06 | -8.71863 | 92.32761 | 39869 ft | 503 kts | 140° |
| 2026-05-06 00:07 | -8.77230 | 92.37292 | 39866 ft | 501 kts | 140° |
| 2026-05-06 00:07 | -8.82582 | 92.41812 | 39866 ft | 502 kts | 140° |
| 2026-05-06 00:08 | -8.87918 | 92.46320 | 39866 ft | 503 kts | 140° |
| 2026-05-06 00:08 | -8.93311 | 92.50878 | 39874 ft | 503 kts | 140° |
| 2026-05-06 00:09 | -8.97802 | 92.54675 | 39874 ft | 503 kts | 140° |
| 2026-05-06 00:09 | -9.03141 | 92.59191 | 39870 ft | 504 kts | 140° |
| 2026-05-06 00:10 | -9.08521 | 92.63743 | 39871 ft | 504 kts | 140° |
| 2026-05-06 00:10 | -9.13899 | 92.68295 | 39872 ft | 504 kts | 140° |
| 2026-05-06 00:11 | -9.19290 | 92.72860 | 39874 ft | 506 kts | 140° |
| 2026-05-06 00:11 | -9.24701 | 92.77444 | 39880 ft | 507 kts | 140° |
| 2026-05-06 00:12 | -9.30112 | 92.82030 | 39879 ft | 506 kts | 140° |
| 2026-05-06 00:12 | -9.35514 | 92.86610 | 39879 ft | 506 kts | 140° |
| 2026-05-06 00:13 | -9.40912 | 92.91189 | 39883 ft | 507 kts | 140° |
| 2026-05-06 00:13 | -9.46310 | 92.95769 | 39889 ft | 507 kts | 140° |
| 2026-05-06 00:14 | -9.51719 | 93.00362 | 39888 ft | 507 kts | 140° |
| 2026-05-06 00:14 | -9.57120 | 93.04948 | 39884 ft | 506 kts | 140° |
| 2026-05-06 00:15 | -9.62479 | 93.09502 | 39887 ft | 507 kts | 140° |
| 2026-05-06 00:15 | -9.67878 | 93.14091 | 39890 ft | 506 kts | 140° |
| 2026-05-06 00:16 | -9.73283 | 93.18688 | 39894 ft | 506 kts | 140° |
| 2026-05-06 00:16 | -9.78673 | 93.23273 | 39896 ft | 505 kts | 140° |
| 2026-05-06 00:17 | -9.84055 | 93.27854 | 39895 ft | 505 kts | 140° |
| 2026-05-06 00:17 | -9.89444 | 93.32443 | 39893 ft | 506 kts | 140° |
| 2026-05-06 00:18 | -9.94839 | 93.37039 | 39893 ft | 507 kts | 140° |
| 2026-05-06 00:18 | -10.00248 | 93.41649 | 39894 ft | 507 kts | 140° |
| 2026-05-06 00:19 | -10.05644 | 93.46250 | 39891 ft | 506 kts | 140° |
| 2026-05-06 00:19 | -10.11026 | 93.50841 | 39890 ft | 505 kts | 140° |
| 2026-05-06 00:20 | -10.16401 | 93.55428 | 39892 ft | 505 kts | 140° |
| 2026-05-06 00:20 | -10.21801 | 93.60039 | 39891 ft | 506 kts | 140° |
| 2026-05-06 00:21 | -10.27183 | 93.64636 | 39894 ft | 506 kts | 140° |
| 2026-05-06 00:21 | -10.32565 | 93.69236 | 39893 ft | 505 kts | 140° |
| 2026-05-06 00:22 | -10.37911 | 93.73806 | 39894 ft | 505 kts | 140° |
| 2026-05-06 00:22 | -10.43282 | 93.78401 | 39896 ft | 504 kts | 140° |
| 2026-05-06 00:23 | -10.48638 | 93.82984 | 39894 ft | 503 kts | 140° |
| 2026-05-06 00:23 | -10.53998 | 93.87574 | 39898 ft | 503 kts | 140° |
| 2026-05-06 00:24 | -10.59319 | 93.92132 | 39900 ft | 503 kts | 140° |
| 2026-05-06 00:24 | -10.64662 | 93.96711 | 39897 ft | 503 kts | 140° |
| 2026-05-06 00:25 | -10.70027 | 94.01310 | 39898 ft | 503 kts | 140° |
| 2026-05-06 00:25 | -10.75392 | 94.05913 | 39902 ft | 504 kts | 140° |
| 2026-05-06 00:26 | -10.80754 | 94.10515 | 39900 ft | 505 kts | 140° |
| 2026-05-06 00:26 | -10.86132 | 94.15132 | 39905 ft | 504 kts | 140° |
| 2026-05-06 00:27 | -10.91448 | 94.19699 | 39903 ft | 504 kts | 140° |
| 2026-05-06 00:27 | -10.96813 | 94.24311 | 39902 ft | 504 kts | 140° |
| 2026-05-06 00:28 | -11.02164 | 94.28912 | 39904 ft | 504 kts | 140° |
| 2026-05-06 00:28 | -11.07514 | 94.33515 | 39902 ft | 503 kts | 140° |
| 2026-05-06 00:29 | -11.12862 | 94.38118 | 39902 ft | 503 kts | 140° |
| 2026-05-06 00:29 | -11.18206 | 94.42721 | 39902 ft | 504 kts | 140° |
| 2026-05-06 00:30 | -11.23572 | 94.47344 | 39908 ft | 505 kts | 140° |
| 2026-05-06 00:30 | -11.28941 | 94.51972 | 39907 ft | 505 kts | 140° |
| 2026-05-06 00:31 | -11.34261 | 94.56561 | 39910 ft | 504 kts | 140° |
| 2026-05-06 00:31 | -11.39614 | 94.61180 | 39912 ft | 504 kts | 140° |
| 2026-05-06 00:32 | -11.44971 | 94.65805 | 39914 ft | 505 kts | 140° |
| 2026-05-06 00:32 | -11.50329 | 94.70433 | 39906 ft | 504 kts | 140° |
| 2026-05-06 00:33 | -11.55676 | 94.75055 | 39910 ft | 504 kts | 140° |
| 2026-05-06 00:33 | -11.61025 | 94.79680 | 39907 ft | 505 kts | 140° |
| 2026-05-06 00:34 | -11.66380 | 94.84313 | 39910 ft | 504 kts | 140° |
| 2026-05-06 00:34 | -11.71733 | 94.88946 | 39914 ft | 505 kts | 140° |
| 2026-05-06 00:35 | -11.77087 | 94.93584 | 39913 ft | 505 kts | 140° |
| 2026-05-06 00:35 | -11.82451 | 94.98232 | 39917 ft | 505 kts | 140° |
| 2026-05-06 00:36 | -11.87802 | 95.02866 | 39914 ft | 504 kts | 141° |
| 2026-05-06 00:36 | -11.93548 | 95.06931 | 39919 ft | 504 kts | 147° |
| 2026-05-06 00:37 | -11.99378 | 95.10930 | 39917 ft | 504 kts | 146° |
| 2026-05-06 00:37 | -12.05150 | 95.14919 | 39922 ft | 504 kts | 146° |
| 2026-05-06 00:38 | -12.10967 | 95.18921 | 39924 ft | 505 kts | 146° |
| 2026-05-06 00:38 | -12.16780 | 95.22936 | 39923 ft | 504 kts | 146° |
| 2026-05-06 00:39 | -12.22609 | 95.26956 | 39925 ft | 505 kts | 146° |
| 2026-05-06 00:39 | -12.28446 | 95.30989 | 39925 ft | 507 kts | 146° |
| 2026-05-06 00:40 | -12.34292 | 95.35027 | 39923 ft | 507 kts | 146° |
| 2026-05-06 00:40 | -12.40149 | 95.39077 | 39924 ft | 508 kts | 146° |
| 2026-05-06 00:41 | -12.46015 | 95.43134 | 39926 ft | 509 kts | 146° |
| 2026-05-06 00:41 | -12.51873 | 95.47188 | 39924 ft | 508 kts | 146° |
| 2026-05-06 00:42 | -12.57739 | 95.51250 | 39925 ft | 508 kts | 146° |
| 2026-05-06 00:42 | -12.63585 | 95.55301 | 39923 ft | 508 kts | 146° |
| 2026-05-06 00:43 | -12.69436 | 95.59356 | 39921 ft | 508 kts | 146° |
| 2026-05-06 00:43 | -12.75285 | 95.63414 | 39923 ft | 507 kts | 147° |
| 2026-05-06 00:44 | -12.81109 | 95.67455 | 39923 ft | 506 kts | 147° |
| 2026-05-06 00:44 | -12.86941 | 95.71505 | 39922 ft | 506 kts | 147° |
| 2026-05-06 00:45 | -12.92767 | 95.75553 | 39925 ft | 506 kts | 147° |
| 2026-05-06 00:45 | -12.98592 | 95.79603 | 39924 ft | 506 kts | 147° |
| 2026-05-06 00:46 | -13.04423 | 95.83659 | 39925 ft | 507 kts | 147° |
| 2026-05-06 00:46 | -13.10257 | 95.87720 | 39924 ft | 507 kts | 147° |
| 2026-05-06 00:47 | -13.16053 | 95.91756 | 39922 ft | 507 kts | 147° |
| 2026-05-06 00:47 | -13.21896 | 95.95828 | 39927 ft | 508 kts | 147° |
| 2026-05-06 00:48 | -13.27742 | 95.99903 | 39924 ft | 508 kts | 147° |
| 2026-05-06 00:48 | -13.33595 | 96.03987 | 39927 ft | 508 kts | 147° |
| 2026-05-06 00:49 | -13.39444 | 96.08070 | 39928 ft | 509 kts | 147° |
| 2026-05-06 00:49 | -13.45308 | 96.12166 | 39929 ft | 509 kts | 147° |
| 2026-05-06 00:50 | -13.51162 | 96.16258 | 39930 ft | 509 kts | 147° |
| 2026-05-06 00:50 | -13.57034 | 96.20364 | 39934 ft | 510 kts | 147° |
| 2026-05-06 00:51 | -13.62895 | 96.24465 | 39935 ft | 510 kts | 147° |
| 2026-05-06 00:51 | -13.68755 | 96.28568 | 39936 ft | 510 kts | 147° |
| 2026-05-06 00:52 | -13.74627 | 96.32682 | 39940 ft | 510 kts | 147° |
| 2026-05-06 00:52 | -13.80449 | 96.36764 | 39938 ft | 510 kts | 147° |
| 2026-05-06 00:53 | -13.86307 | 96.40873 | 39943 ft | 510 kts | 147° |
| 2026-05-06 00:53 | -13.92173 | 96.44990 | 39942 ft | 510 kts | 147° |
| 2026-05-06 00:54 | -13.98044 | 96.49114 | 39944 ft | 510 kts | 147° |
| 2026-05-06 00:54 | -14.03908 | 96.53235 | 39946 ft | 510 kts | 147° |
| 2026-05-06 00:55 | -14.09780 | 96.57364 | 39949 ft | 510 kts | 147° |
| 2026-05-06 00:55 | -14.15641 | 96.61489 | 39954 ft | 510 kts | 147° |
| 2026-05-06 00:56 | -14.21501 | 96.65615 | 39956 ft | 510 kts | 147° |
| 2026-05-06 00:56 | -14.27362 | 96.69745 | 39957 ft | 510 kts | 147° |
| 2026-05-06 00:57 | -14.33173 | 96.73842 | 39953 ft | 508 kts | 147° |
| 2026-05-06 00:57 | -14.39010 | 96.77959 | 39951 ft | 509 kts | 147° |
| 2026-05-06 00:58 | -14.44850 | 96.82082 | 39956 ft | 509 kts | 147° |
| 2026-05-06 00:58 | -14.49741 | 96.85537 | 39956 ft | 508 kts | 147° |
| 2026-05-06 00:59 | -14.55551 | 96.89643 | 39957 ft | 509 kts | 147° |
| 2026-05-06 00:59 | -14.61405 | 96.93784 | 39963 ft | 510 kts | 147° |
| 2026-05-06 01:00 | -14.67265 | 96.97931 | 39969 ft | 510 kts | 147° |
| 2026-05-06 01:00 | -14.73120 | 97.02077 | 39967 ft | 510 kts | 147° |
| 2026-05-06 01:01 | -14.78966 | 97.06220 | 39965 ft | 509 kts | 147° |
| 2026-05-06 01:01 | -14.84799 | 97.10356 | 39968 ft | 509 kts | 147° |
| 2026-05-06 01:02 | -14.90648 | 97.14507 | 39972 ft | 511 kts | 147° |
| 2026-05-06 01:02 | -14.96509 | 97.18669 | 39976 ft | 511 kts | 147° |
| 2026-05-06 01:03 | -15.02373 | 97.22835 | 39975 ft | 511 kts | 147° |
| 2026-05-06 01:03 | -15.08239 | 97.27006 | 39978 ft | 511 kts | 147° |
| 2026-05-06 01:04 | -15.14063 | 97.31150 | 39976 ft | 511 kts | 147° |
| 2026-05-06 01:04 | -15.19933 | 97.35329 | 39976 ft | 512 kts | 147° |
| 2026-05-06 01:05 | -15.25793 | 97.39505 | 39981 ft | 511 kts | 147° |
| 2026-05-06 01:05 | -15.31654 | 97.43683 | 39978 ft | 511 kts | 148° |
| 2026-05-06 01:06 | -15.37515 | 97.47865 | 39986 ft | 511 kts | 148° |
| 2026-05-06 01:06 | -15.43375 | 97.52049 | 39984 ft | 511 kts | 148° |
| 2026-05-06 01:07 | -15.49229 | 97.56231 | 39990 ft | 510 kts | 148° |
| 2026-05-06 01:07 | -15.55076 | 97.60412 | 39985 ft | 511 kts | 148° |
| 2026-05-06 01:08 | -15.60937 | 97.64605 | 39990 ft | 512 kts | 148° |
| 2026-05-06 01:08 | -15.66766 | 97.68779 | 39990 ft | 512 kts | 148° |
| 2026-05-06 01:09 | -15.72628 | 97.72979 | 39994 ft | 512 kts | 148° |
| 2026-05-06 01:09 | -15.78499 | 97.77188 | 39989 ft | 512 kts | 148° |
| 2026-05-06 01:10 | -15.84361 | 97.81394 | 39992 ft | 512 kts | 148° |
| 2026-05-06 01:10 | -15.90227 | 97.85606 | 39994 ft | 512 kts | 148° |
| 2026-05-06 01:11 | -15.96089 | 97.89819 | 39999 ft | 512 kts | 148° |
| 2026-05-06 01:11 | -16.01944 | 97.94028 | 39998 ft | 512 kts | 148° |
| 2026-05-06 01:12 | -16.07794 | 97.98238 | 39998 ft | 511 kts | 148° |
| 2026-05-06 01:12 | -16.13643 | 98.02450 | 39999 ft | 511 kts | 148° |
| 2026-05-06 01:13 | -16.19487 | 98.06661 | 40000 ft | 511 kts | 148° |
| 2026-05-06 01:13 | -16.25336 | 98.10880 | 40003 ft | 512 kts | 148° |
| 2026-05-06 01:14 | -16.34077 | 98.17189 | 40004 ft | 512 kts | 148° |
| 2026-05-06 01:14 | -16.39930 | 98.21418 | 39999 ft | 512 kts | 148° |
| 2026-05-06 01:15 | -16.45775 | 98.25644 | 40002 ft | 511 kts | 148° |
| 2026-05-06 01:15 | -16.51614 | 98.29869 | 40006 ft | 511 kts | 148° |
| 2026-05-06 01:16 | -16.57451 | 98.34096 | 40007 ft | 510 kts | 148° |
| 2026-05-06 01:16 | -16.63284 | 98.38323 | 40010 ft | 510 kts | 148° |
| 2026-05-06 01:17 | -16.69111 | 98.42549 | 40016 ft | 510 kts | 149° |
| 2026-05-06 01:17 | -16.74933 | 98.46774 | 40011 ft | 510 kts | 149° |
| 2026-05-06 01:18 | -16.80723 | 98.50980 | 40016 ft | 510 kts | 149° |
| 2026-05-06 01:18 | -16.86360 | 98.55523 | 40015 ft | 512 kts | 146° |
| 2026-05-06 01:19 | -16.91984 | 98.60098 | 40016 ft | 512 kts | 145° |
| 2026-05-06 01:19 | -16.97584 | 98.64704 | 40020 ft | 512 kts | 145° |
| 2026-05-06 01:20 | -17.03181 | 98.69283 | 40017 ft | 511 kts | 145° |
| 2026-05-06 01:20 | -17.08772 | 98.73876 | 40017 ft | 511 kts | 145° |
| 2026-05-06 01:21 | -17.14378 | 98.78477 | 40020 ft | 512 kts | 146° |
| 2026-05-06 01:21 | -17.19977 | 98.83080 | 40019 ft | 512 kts | 145° |
| 2026-05-06 01:22 | -17.25577 | 98.87685 | 40023 ft | 512 kts | 146° |
| 2026-05-06 01:22 | -17.31173 | 98.92292 | 40022 ft | 512 kts | 146° |
| 2026-05-06 01:23 | -17.36770 | 98.96903 | 40021 ft | 512 kts | 146° |
| 2026-05-06 01:23 | -17.42357 | 99.01510 | 40027 ft | 511 kts | 146° |
| 2026-05-06 01:24 | -17.47914 | 99.06095 | 40025 ft | 512 kts | 146° |
| 2026-05-06 01:24 | -17.53513 | 99.10719 | 40033 ft | 513 kts | 146° |
| 2026-05-06 01:25 | -17.59116 | 99.15350 | 40030 ft | 513 kts | 146° |
| 2026-05-06 01:25 | -17.64724 | 99.19989 | 40032 ft | 513 kts | 146° |
| 2026-05-06 01:26 | -17.70334 | 99.24634 | 40031 ft | 512 kts | 146° |
| 2026-05-06 01:26 | -17.75929 | 99.29267 | 40035 ft | 512 kts | 146° |
| 2026-05-06 01:27 | -17.81517 | 99.33902 | 40031 ft | 512 kts | 146° |
| 2026-05-06 01:27 | -17.87105 | 99.38539 | 40029 ft | 512 kts | 146° |
| 2026-05-06 01:28 | -17.92700 | 99.43186 | 40028 ft | 514 kts | 146° |
| 2026-05-06 01:28 | -17.98309 | 99.47849 | 40039 ft | 515 kts | 146° |
| 2026-05-06 01:29 | -18.03882 | 99.52485 | 40034 ft | 515 kts | 146° |
| 2026-05-06 01:29 | -18.09492 | 99.57157 | 40025 ft | 514 kts | 146° |
| 2026-05-06 01:30 | -18.15091 | 99.61823 | 40023 ft | 514 kts | 146° |
| 2026-05-06 01:30 | -18.20694 | 99.66495 | 40028 ft | 514 kts | 146° |
| 2026-05-06 01:31 | -18.26301 | 99.71176 | 40029 ft | 515 kts | 146° |
| 2026-05-06 01:31 | -18.31922 | 99.75872 | 40032 ft | 516 kts | 146° |
| 2026-05-06 01:32 | -18.37537 | 99.80567 | 40041 ft | 516 kts | 146° |
| 2026-05-06 01:32 | -18.43156 | 99.85269 | 40037 ft | 516 kts | 146° |
| 2026-05-06 01:33 | -18.48777 | 99.89978 | 40040 ft | 516 kts | 146° |
| 2026-05-06 01:33 | -18.54397 | 99.94689 | 40041 ft | 516 kts | 146° |
| 2026-05-06 01:34 | -18.59972 | 99.99367 | 40042 ft | 515 kts | 146° |
| 2026-05-06 01:34 | -18.65576 | 100.04073 | 40041 ft | 514 kts | 146° |
| 2026-05-06 01:35 | -18.71173 | 100.08777 | 40043 ft | 515 kts | 146° |
| 2026-05-06 01:35 | -18.76776 | 100.13490 | 40043 ft | 516 kts | 146° |
| 2026-05-06 01:36 | -18.82397 | 100.18223 | 40046 ft | 517 kts | 146° |
| 2026-05-06 01:36 | -18.88009 | 100.22953 | 40044 ft | 516 kts | 146° |
| 2026-05-06 01:37 | -18.93614 | 100.27680 | 40044 ft | 515 kts | 147° |
| 2026-05-06 01:37 | -18.99209 | 100.32404 | 40046 ft | 515 kts | 147° |
| 2026-05-06 01:38 | -19.04808 | 100.37135 | 40049 ft | 515 kts | 147° |
| 2026-05-06 01:38 | -19.10406 | 100.41869 | 40046 ft | 515 kts | 147° |
| 2026-05-06 01:39 | -19.16016 | 100.46618 | 40050 ft | 516 kts | 147° |
| 2026-05-06 01:39 | -19.21622 | 100.51367 | 40051 ft | 516 kts | 147° |
| 2026-05-06 01:40 | -19.27221 | 100.56115 | 40053 ft | 516 kts | 147° |
| 2026-05-06 01:40 | -19.32782 | 100.60835 | 40051 ft | 516 kts | 147° |
| 2026-05-06 01:41 | -19.38395 | 100.65603 | 40053 ft | 517 kts | 147° |
| 2026-05-06 01:41 | -19.44040 | 100.70403 | 40057 ft | 517 kts | 147° |
| 2026-05-06 01:42 | -19.49271 | 100.74855 | 40053 ft | 517 kts | 147° |
| 2026-05-06 01:42 | -19.54877 | 100.79630 | 40054 ft | 517 kts | 147° |
| 2026-05-06 01:43 | -19.60495 | 100.84420 | 40056 ft | 518 kts | 147° |
| 2026-05-06 01:43 | -19.66117 | 100.89218 | 40058 ft | 518 kts | 147° |
| 2026-05-06 01:44 | -19.71729 | 100.94011 | 40056 ft | 518 kts | 147° |
| 2026-05-06 01:44 | -19.77341 | 100.98809 | 40054 ft | 518 kts | 147° |
| 2026-05-06 01:45 | -19.82962 | 101.03619 | 40053 ft | 519 kts | 147° |
| 2026-05-06 01:45 | -19.88594 | 101.08444 | 40054 ft | 520 kts | 147° |
| 2026-05-06 01:46 | -19.94213 | 101.13262 | 40055 ft | 518 kts | 147° |
| 2026-05-06 01:46 | -19.99818 | 101.18072 | 40057 ft | 518 kts | 147° |
| 2026-05-06 01:47 | -20.05426 | 101.22889 | 40063 ft | 518 kts | 147° |
| 2026-05-06 01:47 | -20.11039 | 101.27715 | 40060 ft | 519 kts | 147° |
| 2026-05-06 01:48 | -20.16663 | 101.32556 | 40060 ft | 519 kts | 147° |
| 2026-05-06 01:48 | -20.22244 | 101.37362 | 40062 ft | 520 kts | 147° |
| 2026-05-06 01:49 | -20.27864 | 101.42210 | 40065 ft | 520 kts | 147° |
| 2026-05-06 01:49 | -20.33480 | 101.47057 | 40065 ft | 519 kts | 147° |
| 2026-05-06 01:50 | -20.39092 | 101.51905 | 40065 ft | 519 kts | 147° |
| 2026-05-06 01:50 | -20.44697 | 101.56752 | 40063 ft | 519 kts | 147° |
| 2026-05-06 01:51 | -20.50314 | 101.61614 | 40066 ft | 521 kts | 147° |
| 2026-05-06 01:51 | -20.55936 | 101.66485 | 40069 ft | 521 kts | 147° |
| 2026-05-06 01:52 | -20.61559 | 101.71362 | 40070 ft | 520 kts | 147° |
| 2026-05-06 01:52 | -20.67170 | 101.76233 | 40070 ft | 519 kts | 147° |
| 2026-05-06 01:53 | -20.72774 | 101.81103 | 40070 ft | 519 kts | 147° |
| 2026-05-06 01:53 | -20.78377 | 101.85976 | 40072 ft | 520 kts | 148° |
| 2026-05-06 01:54 | -20.84001 | 101.90874 | 40066 ft | 521 kts | 148° |
| 2026-05-06 01:54 | -20.89620 | 101.95772 | 40072 ft | 521 kts | 148° |
| 2026-05-06 01:55 | -20.95235 | 102.00670 | 40069 ft | 520 kts | 148° |
| 2026-05-06 01:55 | -21.00846 | 102.05570 | 40069 ft | 521 kts | 148° |
| 2026-05-06 01:56 | -21.06424 | 102.10446 | 40067 ft | 521 kts | 148° |
| 2026-05-06 01:56 | -21.12043 | 102.15364 | 40072 ft | 521 kts | 148° |
| 2026-05-06 01:57 | -21.17657 | 102.20281 | 40074 ft | 522 kts | 148° |
| 2026-05-06 01:57 | -21.23283 | 102.25215 | 40075 ft | 522 kts | 148° |
| 2026-05-06 01:58 | -21.28889 | 102.30136 | 40073 ft | 521 kts | 148° |
| 2026-05-06 01:58 | -21.34495 | 102.35061 | 40076 ft | 521 kts | 148° |
| 2026-05-06 01:59 | -21.40106 | 102.39996 | 40080 ft | 521 kts | 148° |
| 2026-05-06 01:59 | -21.45713 | 102.44933 | 40078 ft | 521 kts | 148° |
| 2026-05-06 02:00 | -21.51311 | 102.49867 | 40080 ft | 520 kts | 148° |
| 2026-05-06 02:00 | -21.55952 | 102.53960 | 40068 ft | 520 kts | 148° |
| 2026-05-06 02:01 | -21.62489 | 102.59733 | 40075 ft | 521 kts | 148° |
| 2026-05-06 02:01 | -21.67139 | 102.63844 | 40072 ft | 521 kts | 148° |
| 2026-05-06 02:02 | -21.72737 | 102.68797 | 40081 ft | 520 kts | 148° |
| 2026-05-06 02:02 | -21.73759 | 102.69702 | 40084 ft | 520 kts | 149° |
| 2026-05-06 02:03 | -21.78053 | 102.73504 | 40080 ft | 519 kts | 149° |
| 2026-05-06 02:03 | -21.83614 | 102.78437 | 40084 ft | 518 kts | 149° |
| 2026-05-06 02:04 | -21.89175 | 102.83371 | 40078 ft | 518 kts | 149° |
| 2026-05-06 02:04 | -21.94705 | 102.88286 | 40085 ft | 518 kts | 149° |
| 2026-05-06 02:05 | -22.00262 | 102.93228 | 40081 ft | 518 kts | 149° |
| 2026-05-06 02:05 | -22.05808 | 102.98167 | 40087 ft | 516 kts | 149° |
| 2026-05-06 02:06 | -22.11344 | 103.03101 | 40080 ft | 516 kts | 149° |
| 2026-05-06 02:06 | -22.16878 | 103.08036 | 40082 ft | 516 kts | 149° |
| 2026-05-06 02:07 | -22.22402 | 103.12972 | 40089 ft | 515 kts | 149° |
| 2026-05-06 02:07 | -22.27921 | 103.17905 | 40089 ft | 515 kts | 149° |
| 2026-05-06 02:08 | -22.33453 | 103.22858 | 40089 ft | 516 kts | 149° |
| 2026-05-06 02:08 | -22.38458 | 103.27342 | 40093 ft | 515 kts | 149° |
| 2026-05-06 02:09 | -22.43977 | 103.32291 | 40093 ft | 516 kts | 149° |
| 2026-05-06 02:09 | -22.49466 | 103.37218 | 40094 ft | 516 kts | 149° |
| 2026-05-06 02:10 | -22.54991 | 103.42188 | 40098 ft | 516 kts | 149° |
| 2026-05-06 02:10 | -22.60514 | 103.47154 | 40096 ft | 517 kts | 149° |
| 2026-05-06 02:11 | -22.66074 | 103.52163 | 40100 ft | 517 kts | 149° |
| 2026-05-06 02:11 | -22.71571 | 103.57119 | 40098 ft | 517 kts | 149° |
| 2026-05-06 02:12 | -22.77090 | 103.62103 | 40097 ft | 516 kts | 150° |
| 2026-05-06 02:12 | -22.82611 | 103.67090 | 40092 ft | 516 kts | 150° |
| 2026-05-06 02:13 | -22.88123 | 103.72078 | 40098 ft | 516 kts | 150° |
| 2026-05-06 02:13 | -22.93640 | 103.77074 | 40103 ft | 516 kts | 150° |
| 2026-05-06 02:14 | -22.99150 | 103.82071 | 40108 ft | 516 kts | 150° |
| 2026-05-06 02:14 | -23.04672 | 103.87080 | 40105 ft | 517 kts | 150° |
| 2026-05-06 02:15 | -23.10188 | 103.92094 | 40107 ft | 517 kts | 150° |
| 2026-05-06 02:15 | -23.15710 | 103.97117 | 40109 ft | 518 kts | 150° |
| 2026-05-06 02:16 | -23.21237 | 104.02151 | 40112 ft | 518 kts | 150° |
| 2026-05-06 02:16 | -23.26720 | 104.07150 | 40111 ft | 518 kts | 150° |
| 2026-05-06 02:17 | -23.32242 | 104.12190 | 40115 ft | 518 kts | 150° |
| 2026-05-06 02:17 | -23.37765 | 104.17236 | 40118 ft | 518 kts | 150° |
| 2026-05-06 02:18 | -23.43292 | 104.22291 | 40113 ft | 519 kts | 150° |
| 2026-05-06 02:18 | -23.48816 | 104.27352 | 40122 ft | 519 kts | 150° |
| 2026-05-06 02:19 | -23.54344 | 104.32418 | 40126 ft | 520 kts | 150° |
| 2026-05-06 02:19 | -23.59873 | 104.37495 | 40122 ft | 520 kts | 150° |
| 2026-05-06 02:20 | -23.68181 | 104.45130 | 40130 ft | 520 kts | 150° |
| 2026-05-06 02:21 | -23.73706 | 104.50217 | 40129 ft | 520 kts | 150° |
| 2026-05-06 02:21 | -23.79199 | 104.55278 | 40130 ft | 520 kts | 150° |
| 2026-05-06 02:22 | -23.84720 | 104.60373 | 40130 ft | 520 kts | 150° |
| 2026-05-06 02:22 | -23.90241 | 104.65472 | 40136 ft | 519 kts | 150° |
| 2026-05-06 02:23 | -23.95690 | 104.70678 | 40132 ft | 522 kts | 148° |
| 2026-05-06 02:23 | -24.01092 | 104.75974 | 40133 ft | 521 kts | 148° |
| 2026-05-06 02:24 | -24.06472 | 104.81303 | 40138 ft | 521 kts | 148° |
| 2026-05-06 02:24 | -24.11856 | 104.86622 | 40142 ft | 521 kts | 148° |
| 2026-05-06 02:25 | -24.17201 | 104.91915 | 40140 ft | 522 kts | 148° |
| 2026-05-06 02:25 | -24.22593 | 104.97261 | 40145 ft | 522 kts | 148° |
| 2026-05-06 02:26 | -24.27980 | 105.02607 | 40149 ft | 522 kts | 148° |
| 2026-05-06 02:26 | -24.33359 | 105.07952 | 40149 ft | 522 kts | 148° |
| 2026-05-06 02:27 | -24.38738 | 105.13303 | 40142 ft | 521 kts | 148° |
| 2026-05-06 02:27 | -24.44100 | 105.18644 | 40148 ft | 520 kts | 148° |
| 2026-05-06 02:28 | -24.49458 | 105.23987 | 40158 ft | 520 kts | 148° |
| 2026-05-06 02:28 | -24.54802 | 105.29323 | 40155 ft | 520 kts | 148° |
| 2026-05-06 02:29 | -24.60151 | 105.34670 | 40156 ft | 520 kts | 148° |
| 2026-05-06 02:29 | -24.65496 | 105.40019 | 40160 ft | 520 kts | 148° |
| 2026-05-06 02:30 | -24.70837 | 105.45372 | 40161 ft | 519 kts | 148° |
| 2026-05-06 02:30 | -24.76139 | 105.50691 | 40164 ft | 519 kts | 148° |
| 2026-05-06 02:31 | -24.81472 | 105.56047 | 40158 ft | 519 kts | 148° |
| 2026-05-06 02:31 | -24.86801 | 105.61408 | 40168 ft | 519 kts | 148° |
| 2026-05-06 02:32 | -24.92135 | 105.66777 | 40171 ft | 519 kts | 148° |
| 2026-05-06 02:32 | -24.97463 | 105.72150 | 40172 ft | 519 kts | 148° |
| 2026-05-06 02:33 | -25.02789 | 105.77526 | 40173 ft | 519 kts | 148° |
| 2026-05-06 02:33 | -25.04591 | 105.79346 | 40174 ft | 519 kts | 148° |
| 2026-05-06 02:34 | -25.13430 | 105.88287 | 40173 ft | 518 kts | 147° |
| 2026-05-06 02:34 | -25.18749 | 105.93676 | 40165 ft | 519 kts | 147° |
| 2026-05-06 02:35 | -25.24061 | 105.99066 | 40177 ft | 517 kts | 147° |
| 2026-05-06 02:35 | -25.29354 | 106.04441 | 40182 ft | 516 kts | 147° |
| 2026-05-06 02:36 | -25.34640 | 106.09817 | 40188 ft | 516 kts | 147° |
| 2026-05-06 02:36 | -25.39920 | 106.15193 | 40185 ft | 516 kts | 147° |
| 2026-05-06 02:37 | -25.45208 | 106.20583 | 40185 ft | 517 kts | 147° |
| 2026-05-06 02:37 | -25.50484 | 106.25970 | 40188 ft | 516 kts | 147° |
| 2026-05-06 02:38 | -25.55758 | 106.31359 | 40193 ft | 515 kts | 147° |
| 2026-05-06 02:38 | -25.60987 | 106.36710 | 40188 ft | 515 kts | 147° |
| 2026-05-06 02:39 | -25.66245 | 106.42097 | 40190 ft | 515 kts | 147° |
| 2026-05-06 02:39 | -25.71495 | 106.47484 | 40190 ft | 514 kts | 147° |
| 2026-05-06 02:40 | -25.76746 | 106.52877 | 40197 ft | 514 kts | 147° |
| 2026-05-06 02:40 | -25.81992 | 106.58272 | 40199 ft | 514 kts | 146° |
| 2026-05-06 02:41 | -25.87232 | 106.63668 | 40201 ft | 514 kts | 146° |
| 2026-05-06 02:41 | -25.92468 | 106.69068 | 40198 ft | 514 kts | 146° |
| 2026-05-06 02:42 | -25.97702 | 106.74470 | 40204 ft | 513 kts | 146° |
| 2026-05-06 02:42 | -26.02935 | 106.79880 | 40207 ft | 514 kts | 146° |
| 2026-05-06 02:43 | -26.08165 | 106.85293 | 40212 ft | 514 kts | 146° |
| 2026-05-06 02:43 | -26.13365 | 106.90682 | 40212 ft | 514 kts | 146° |
| 2026-05-06 02:44 | -26.18603 | 106.96118 | 40214 ft | 514 kts | 146° |
| 2026-05-06 02:44 | -26.23835 | 107.01554 | 40212 ft | 514 kts | 146° |
| 2026-05-06 02:45 | -26.29063 | 107.06994 | 40220 ft | 514 kts | 146° |
| 2026-05-06 02:45 | -26.34278 | 107.12426 | 40228 ft | 513 kts | 146° |
| 2026-05-06 02:46 | -26.39488 | 107.17860 | 40217 ft | 513 kts | 146° |
| 2026-05-06 02:46 | -26.44688 | 107.23291 | 40225 ft | 512 kts | 146° |
| 2026-05-06 02:47 | -26.49853 | 107.28692 | 40225 ft | 511 kts | 146° |
| 2026-05-06 02:47 | -26.55040 | 107.34123 | 40227 ft | 511 kts | 146° |
| 2026-05-06 02:48 | -26.60222 | 107.39557 | 40227 ft | 510 kts | 146° |
| 2026-05-06 02:48 | -26.65389 | 107.44981 | 40229 ft | 510 kts | 146° |
| 2026-05-06 02:49 | -26.70560 | 107.50417 | 40233 ft | 510 kts | 146° |
| 2026-05-06 02:49 | -26.75723 | 107.55853 | 40233 ft | 509 kts | 146° |
| 2026-05-06 02:50 | -26.80880 | 107.61287 | 40235 ft | 509 kts | 146° |
| 2026-05-06 02:50 | -26.85160 | 107.65803 | 40235 ft | 509 kts | 145° |
| 2026-05-06 02:51 | -26.90316 | 107.71251 | 40237 ft | 509 kts | 145° |
| 2026-05-06 02:51 | -26.95466 | 107.76699 | 40242 ft | 509 kts | 145° |
| 2026-05-06 02:52 | -27.00620 | 107.82159 | 40240 ft | 509 kts | 145° |
| 2026-05-06 02:52 | -27.05757 | 107.87608 | 40246 ft | 508 kts | 145° |
| 2026-05-06 02:53 | -27.10893 | 107.93062 | 40243 ft | 508 kts | 145° |
| 2026-05-06 02:53 | -27.16020 | 107.98515 | 40249 ft | 507 kts | 144° |
| 2026-05-06 02:54 | -27.21098 | 108.03923 | 40240 ft | 506 kts | 144° |
| 2026-05-06 02:54 | -27.26206 | 108.09369 | 40252 ft | 506 kts | 144° |
| 2026-05-06 02:55 | -27.31312 | 108.14822 | 40248 ft | 506 kts | 144° |
| 2026-05-06 02:55 | -27.36412 | 108.20275 | 40261 ft | 505 kts | 144° |
| 2026-05-06 02:56 | -27.41505 | 108.25726 | 40259 ft | 505 kts | 144° |
| 2026-05-06 02:56 | -27.46594 | 108.31183 | 40262 ft | 505 kts | 144° |
| 2026-05-06 02:57 | -27.51690 | 108.36653 | 40262 ft | 505 kts | 144° |
| 2026-05-06 02:57 | -27.56772 | 108.42117 | 40266 ft | 504 kts | 144° |
| 2026-05-06 02:58 | -27.61850 | 108.47582 | 40266 ft | 505 kts | 144° |
| 2026-05-06 02:58 | -27.66924 | 108.53051 | 40272 ft | 505 kts | 144° |
| 2026-05-06 02:59 | -27.71997 | 108.58526 | 40272 ft | 504 kts | 143° |
| 2026-05-06 02:59 | -27.77054 | 108.63992 | 40274 ft | 503 kts | 143° |
| 2026-05-06 03:00 | -27.82112 | 108.69466 | 40279 ft | 504 kts | 143° |
| 2026-05-06 03:00 | -27.87171 | 108.74948 | 40276 ft | 504 kts | 143° |
| 2026-05-06 03:01 | -27.92222 | 108.80430 | 40279 ft | 503 kts | 143° |
| 2026-05-06 03:01 | -27.97239 | 108.85880 | 40282 ft | 503 kts | 143° |
| 2026-05-06 03:02 | -28.02316 | 108.91406 | 40280 ft | 503 kts | 143° |
| 2026-05-06 03:02 | -28.07321 | 108.96859 | 40289 ft | 503 kts | 143° |
| 2026-05-06 03:03 | -28.12374 | 109.02373 | 40287 ft | 504 kts | 143° |
| 2026-05-06 03:03 | -28.17429 | 109.07895 | 40288 ft | 504 kts | 143° |
| 2026-05-06 03:04 | -28.22478 | 109.13420 | 40290 ft | 505 kts | 143° |
| 2026-05-06 03:04 | -28.27523 | 109.18948 | 40299 ft | 504 kts | 142° |
| 2026-05-06 03:05 | -28.32412 | 109.24679 | 40294 ft | 507 kts | 139° |
| 2026-05-06 03:05 | -28.37173 | 109.30597 | 40299 ft | 507 kts | 139° |
| 2026-05-06 03:06 | -28.41906 | 109.36512 | 40299 ft | 506 kts | 139° |
| 2026-05-06 03:06 | -28.46652 | 109.42442 | 40300 ft | 506 kts | 139° |
| 2026-05-06 03:07 | -28.51385 | 109.48368 | 40292 ft | 506 kts | 138° |
| 2026-05-06 03:07 | -28.56085 | 109.54260 | 40297 ft | 506 kts | 138° |
| 2026-05-06 03:08 | -28.60808 | 109.60188 | 40302 ft | 505 kts | 138° |
| 2026-05-06 03:08 | -28.65520 | 109.66114 | 40303 ft | 504 kts | 138° |
| 2026-05-06 03:09 | -28.70220 | 109.72031 | 40306 ft | 504 kts | 138° |
| 2026-05-06 03:09 | -28.74928 | 109.77968 | 40308 ft | 505 kts | 138° |
| 2026-05-06 03:10 | -28.79638 | 109.83915 | 40309 ft | 505 kts | 138° |
| 2026-05-06 03:10 | -28.84340 | 109.89861 | 40308 ft | 504 kts | 138° |
| 2026-05-06 03:11 | -28.89030 | 109.95801 | 40313 ft | 504 kts | 138° |
| 2026-05-06 03:11 | -28.93717 | 110.01745 | 40313 ft | 504 kts | 137° |
| 2026-05-06 03:12 | -28.98404 | 110.07698 | 40316 ft | 504 kts | 137° |
| 2026-05-06 03:12 | -29.03091 | 110.13660 | 40312 ft | 504 kts | 137° |
| 2026-05-06 03:13 | -29.07738 | 110.19581 | 40316 ft | 503 kts | 137° |
| 2026-05-06 03:13 | -29.12407 | 110.25536 | 40319 ft | 503 kts | 137° |
| 2026-05-06 03:14 | -29.17081 | 110.31507 | 40315 ft | 504 kts | 137° |
| 2026-05-06 03:14 | -29.21748 | 110.37479 | 40319 ft | 502 kts | 137° |
| 2026-05-06 03:15 | -29.26404 | 110.43445 | 40322 ft | 501 kts | 137° |
| 2026-05-06 03:15 | -29.28398 | 110.46003 | 40318 ft | 501 kts | 137° |
| 2026-05-06 03:16 | -29.33035 | 110.51957 | 40310 ft | 501 kts | 137° |
| 2026-05-06 03:16 | -29.37671 | 110.57919 | 40317 ft | 500 kts | 137° |
| 2026-05-06 03:17 | -29.42273 | 110.63846 | 40321 ft | 500 kts | 137° |
| 2026-05-06 03:17 | -29.46897 | 110.69811 | 40329 ft | 500 kts | 137° |
| 2026-05-06 03:18 | -29.51519 | 110.75780 | 40324 ft | 501 kts | 137° |
| 2026-05-06 03:18 | -29.56140 | 110.81759 | 40330 ft | 500 kts | 136° |
| 2026-05-06 03:19 | -29.60763 | 110.87748 | 40332 ft | 501 kts | 136° |
| 2026-05-06 03:19 | -29.65382 | 110.93742 | 40331 ft | 500 kts | 136° |
| 2026-05-06 03:20 | -29.72300 | 111.02735 | 40336 ft | 500 kts | 136° |
| 2026-05-06 03:20 | -29.76905 | 111.08732 | 40333 ft | 500 kts | 136° |
| 2026-05-06 03:21 | -29.81507 | 111.14735 | 40340 ft | 499 kts | 136° |
| 2026-05-06 03:21 | -29.85468 | 111.19911 | 40340 ft | 499 kts | 136° |
| 2026-05-06 03:22 | -29.87405 | 111.22443 | 40339 ft | 499 kts | 136° |
| 2026-05-06 03:23 | -29.91993 | 111.28445 | 40345 ft | 499 kts | 136° |
| 2026-05-06 03:23 | -29.96570 | 111.34449 | 40346 ft | 498 kts | 136° |
| 2026-05-06 03:24 | -30.01138 | 111.40444 | 40345 ft | 497 kts | 136° |
| 2026-05-06 03:24 | -30.05698 | 111.46440 | 40346 ft | 497 kts | 136° |
| 2026-05-06 03:25 | -30.10255 | 111.52441 | 40348 ft | 496 kts | 136° |
| 2026-05-06 03:25 | -30.14804 | 111.58440 | 40350 ft | 496 kts | 136° |
| 2026-05-06 03:26 | -30.19350 | 111.64445 | 40348 ft | 496 kts | 136° |
| 2026-05-06 03:26 | -30.23859 | 111.70411 | 40355 ft | 495 kts | 136° |
| 2026-05-06 03:27 | -30.28393 | 111.76417 | 40355 ft | 495 kts | 135° |
| 2026-05-06 03:27 | -30.32919 | 111.82423 | 40354 ft | 495 kts | 135° |
| 2026-05-06 03:28 | -30.37445 | 111.88438 | 40357 ft | 495 kts | 135° |
| 2026-05-06 03:28 | -30.41964 | 111.94453 | 40359 ft | 495 kts | 135° |
| 2026-05-06 03:29 | -30.46477 | 112.00468 | 40364 ft | 494 kts | 135° |
| 2026-05-06 03:29 | -30.50976 | 112.06475 | 40355 ft | 493 kts | 135° |
| 2026-05-06 03:30 | -30.55466 | 112.12480 | 40361 ft | 492 kts | 135° |
| 2026-05-06 03:30 | -30.59950 | 112.18484 | 40363 ft | 491 kts | 135° |
| 2026-05-06 03:31 | -30.64432 | 112.24496 | 40367 ft | 492 kts | 135° |
| 2026-05-06 03:31 | -30.68902 | 112.30502 | 40371 ft | 491 kts | 135° |
| 2026-05-06 03:32 | -30.73369 | 112.36510 | 40370 ft | 490 kts | 135° |
| 2026-05-06 03:32 | -30.77794 | 112.42473 | 40372 ft | 490 kts | 134° |
| 2026-05-06 03:33 | -30.82241 | 112.48474 | 40373 ft | 490 kts | 134° |
| 2026-05-06 03:33 | -30.86689 | 112.54487 | 40376 ft | 490 kts | 134° |
| 2026-05-06 03:34 | -30.91124 | 112.60490 | 40374 ft | 489 kts | 134° |
| 2026-05-06 03:34 | -30.95561 | 112.66506 | 40379 ft | 489 kts | 134° |
| 2026-05-06 03:35 | -30.99994 | 112.72527 | 40380 ft | 489 kts | 134° |
| 2026-05-06 03:35 | -31.04417 | 112.78543 | 40382 ft | 488 kts | 134° |
| 2026-05-06 03:36 | -31.08843 | 112.84571 | 40388 ft | 488 kts | 134° |
| 2026-05-06 03:36 | -31.13257 | 112.90594 | 40390 ft | 488 kts | 134° |
| 2026-05-06 03:37 | -31.16930 | 112.95612 | 40377 ft | 488 kts | 134° |
| 2026-05-06 03:37 | -31.21336 | 113.01642 | 40386 ft | 488 kts | 134° |
| 2026-05-06 03:38 | -31.25743 | 113.07678 | 40383 ft | 488 kts | 133° |
| 2026-05-06 03:38 | -31.30881 | 113.14735 | 40396 ft | 487 kts | 133° |
| 2026-05-06 03:39 | -31.34533 | 113.19754 | 40390 ft | 487 kts | 133° |
| 2026-05-06 03:39 | -31.38920 | 113.25797 | 40393 ft | 487 kts | 133° |
| 2026-05-06 03:40 | -31.43301 | 113.31838 | 40393 ft | 486 kts | 133° |
| 2026-05-06 03:40 | -31.47226 | 113.38293 | 40401 ft | 492 kts | 116° |
| 2026-05-06 03:41 | -31.49181 | 113.45956 | 40398 ft | 497 kts | 105° |
| 2026-05-06 03:41 | -31.50622 | 113.53866 | 40407 ft | 496 kts | 104° |
| 2026-05-06 03:42 | -31.52071 | 113.61772 | 40406 ft | 496 kts | 104° |
| 2026-05-06 03:42 | -31.53514 | 113.69688 | 40402 ft | 496 kts | 104° |
| 2026-05-06 03:43 | -31.54948 | 113.77595 | 40402 ft | 496 kts | 104° |
| 2026-05-06 03:43 | -31.56380 | 113.85498 | 40402 ft | 496 kts | 104° |
| 2026-05-06 03:44 | -31.57797 | 113.93367 | 39541 ft | 494 kts | 104° |
| 2026-05-06 03:44 | -31.58506 | 113.97303 | 38883 ft | 492 kts | 104° |
| 2026-05-06 03:44 | -31.58549 | 113.97546 | 38830 ft | 492 kts | 104° |
| 2026-05-06 03:45 | -31.59251 | 114.01455 | 38215 ft | 491 kts | 104° |
| 2026-05-06 03:45 | -31.59950 | 114.05369 | 37378 ft | 490 kts | 104° |
| 2026-05-06 03:45 | -31.60648 | 114.09276 | 36555 ft | 489 kts | 104° |
| 2026-05-06 03:45 | -31.61345 | 114.13177 | 35744 ft | 488 kts | 104° |
| 2026-05-06 03:46 | -31.62039 | 114.17076 | 34937 ft | 487 kts | 103° |
| 2026-05-06 03:46 | -31.62729 | 114.20955 | 34085 ft | 485 kts | 103° |
| 2026-05-06 03:46 | -31.63416 | 114.24829 | 33176 ft | 483 kts | 103° |
| 2026-05-06 03:46 | -31.64087 | 114.28622 | 32296 ft | 480 kts | 103° |
| 2026-05-06 03:47 | -31.64764 | 114.32453 | 31377 ft | 478 kts | 103° |
| 2026-05-06 03:47 | -31.65438 | 114.36268 | 30402 ft | 478 kts | 103° |
| 2026-05-06 03:47 | -31.66111 | 114.40086 | 29381 ft | 475 kts | 103° |
| 2026-05-06 03:47 | -31.66776 | 114.43869 | 28416 ft | 472 kts | 103° |
| 2026-05-06 03:48 | -31.67434 | 114.47628 | 27468 ft | 468 kts | 103° |
| 2026-05-06 03:48 | -31.68088 | 114.51356 | 26536 ft | 464 kts | 103° |
| 2026-05-06 03:48 | -31.68735 | 114.55056 | 25616 ft | 460 kts | 103° |
| 2026-05-06 03:48 | -31.69373 | 114.58719 | 24706 ft | 456 kts | 103° |
| 2026-05-06 03:49 | -31.70006 | 114.62350 | 23751 ft | 453 kts | 103° |
| 2026-05-06 03:49 | -31.70631 | 114.65942 | 22856 ft | 445 kts | 103° |
| 2026-05-06 03:49 | -31.71245 | 114.69481 | 21977 ft | 438 kts | 103° |
| 2026-05-06 03:49 | -31.71849 | 114.72962 | 21119 ft | 432 kts | 103° |
| 2026-05-06 03:50 | -31.72442 | 114.76390 | 20265 ft | 426 kts | 103° |
| 2026-05-06 03:50 | -31.73026 | 114.79776 | 19455 ft | 420 kts | 103° |
| 2026-05-06 03:50 | -31.73603 | 114.83116 | 18607 ft | 415 kts | 103° |
| 2026-05-06 03:50 | -31.74170 | 114.86410 | 17782 ft | 408 kts | 103° |
| 2026-05-06 03:51 | -31.74726 | 114.89645 | 16988 ft | 400 kts | 103° |
| 2026-05-06 03:51 | -31.75269 | 114.92813 | 16223 ft | 392 kts | 103° |
| 2026-05-06 03:51 | -31.75803 | 114.95926 | 15454 ft | 385 kts | 102° |
| 2026-05-06 03:51 | -31.76328 | 114.98989 | 14706 ft | 379 kts | 102° |
| 2026-05-06 03:52 | -31.76835 | 115.01959 | 13958 ft | 373 kts | 102° |
| 2026-05-06 03:52 | -31.77349 | 115.04978 | 13071 ft | 370 kts | 102° |
| 2026-05-06 03:52 | -31.77851 | 115.07922 | 12346 ft | 365 kts | 102° |
| 2026-05-06 03:52 | -31.78343 | 115.10816 | 11645 ft | 357 kts | 102° |
| 2026-05-06 03:53 | -31.78814 | 115.13587 | 11063 ft | 348 kts | 102° |
| 2026-05-06 03:53 | -31.79279 | 115.16333 | 10701 ft | 331 kts | 102° |
| 2026-05-06 03:53 | -31.79718 | 115.18931 | 10354 ft | 317 kts | 102° |
| 2026-05-06 03:53 | -31.80138 | 115.21412 | 9997 ft | 303 kts | 102° |
| 2026-05-06 03:54 | -31.80540 | 115.23789 | 9677 ft | 290 kts | 102° |
| 2026-05-06 03:54 | -31.80924 | 115.26063 | 9364 ft | 277 kts | 102° |
| 2026-05-06 03:54 | -31.81356 | 115.28179 | 9072 ft | 260 kts | 108° |
| 2026-05-06 03:54 | -31.81861 | 115.30271 | 8799 ft | 266 kts | 104° |
| 2026-05-06 03:55 | -31.82318 | 115.32348 | 8514 ft | 260 kts | 105° |
| 2026-05-06 03:55 | -31.82788 | 115.34394 | 8237 ft | 259 kts | 105° |
| 2026-05-06 03:55 | -31.83259 | 115.36384 | 7981 ft | 257 kts | 105° |
| 2026-05-06 03:55 | -31.83731 | 115.38399 | 7697 ft | 255 kts | 105° |
| 2026-05-06 03:56 | -31.84198 | 115.40404 | 7428 ft | 254 kts | 105° |
| 2026-05-06 03:56 | -31.84662 | 115.42406 | 7155 ft | 253 kts | 105° |
| 2026-05-06 03:56 | -31.85127 | 115.44398 | 6886 ft | 252 kts | 105° |
| 2026-05-06 03:56 | -31.85587 | 115.46382 | 6603 ft | 252 kts | 105° |
| 2026-05-06 03:57 | -31.86046 | 115.48360 | 6330 ft | 250 kts | 105° |
| 2026-05-06 03:57 | -31.86502 | 115.50322 | 6244 ft | 248 kts | 105° |
| 2026-05-06 03:57 | -31.87108 | 115.52211 | 6221 ft | 250 kts | 124° |
| 2026-05-06 03:57 | -31.88348 | 115.53650 | 6227 ft | 253 kts | 146° |
| 2026-05-06 03:58 | -31.89908 | 115.54625 | 6241 ft | 255 kts | 149° |
| 2026-05-06 03:58 | -31.91461 | 115.55638 | 6247 ft | 255 kts | 148° |
| 2026-05-06 03:58 | -31.93009 | 115.56645 | 6251 ft | 256 kts | 149° |
| 2026-05-06 03:58 | -31.94569 | 115.57646 | 6258 ft | 255 kts | 149° |
| 2026-05-06 03:59 | -31.96129 | 115.58645 | 6261 ft | 255 kts | 149° |
| 2026-05-06 03:59 | -31.97687 | 115.59647 | 6262 ft | 255 kts | 149° |
| 2026-05-06 03:59 | -31.99245 | 115.60651 | 6263 ft | 255 kts | 149° |
| 2026-05-06 03:59 | -32.00806 | 115.61656 | 6268 ft | 256 kts | 149° |
| 2026-05-06 04:00 | -32.02366 | 115.62661 | 6270 ft | 255 kts | 149° |
| 2026-05-06 04:00 | -32.03926 | 115.63666 | 6270 ft | 256 kts | 149° |
| 2026-05-06 04:00 | -32.05484 | 115.64672 | 6270 ft | 256 kts | 149° |
| 2026-05-06 04:00 | -32.07044 | 115.65676 | 6272 ft | 255 kts | 149° |
| 2026-05-06 04:01 | -32.08604 | 115.66681 | 6275 ft | 256 kts | 149° |
| 2026-05-06 04:01 | -32.10167 | 115.67689 | 6272 ft | 255 kts | 149° |
| 2026-05-06 04:01 | -32.11723 | 115.68695 | 6269 ft | 255 kts | 149° |
| 2026-05-06 04:01 | -32.13204 | 115.69817 | 6259 ft | 253 kts | 133° |
| 2026-05-06 04:02 | -32.14153 | 115.71544 | 6261 ft | 252 kts | 109° |
| 2026-05-06 04:02 | -32.14512 | 115.73562 | 6136 ft | 255 kts | 100° |
| 2026-05-06 04:02 | -32.14823 | 115.75543 | 5847 ft | 244 kts | 100° |
| 2026-05-06 04:02 | -32.15131 | 115.77551 | 5590 ft | 245 kts | 100° |
| 2026-05-06 04:03 | -32.15424 | 115.79472 | 5331 ft | 237 kts | 100° |
| 2026-05-06 04:03 | -32.15712 | 115.81361 | 5066 ft | 231 kts | 100° |
| 2026-05-06 04:03 | -32.15993 | 115.83199 | 4817 ft | 224 kts | 100° |
| 2026-05-06 04:03 | -32.16264 | 115.84983 | 4600 ft | 219 kts | 99° |
| 2026-05-06 04:04 | -32.16526 | 115.86713 | 4334 ft | 209 kts | 97° |
| 2026-05-06 04:04 | -32.16458 | 115.88357 | 4090 ft | 200 kts | 70° |
| 2026-05-06 04:04 | -32.15736 | 115.89734 | 3871 ft | 197 kts | 41° |
| 2026-05-06 04:04 | -32.14510 | 115.90399 | 3709 ft | 195 kts | 21° |
| 2026-05-06 04:05 | -32.13202 | 115.90873 | 3555 ft | 202 kts | 18° |
| 2026-05-06 04:05 | -32.11822 | 115.91301 | 3309 ft | 205 kts | 17° |
| 2026-05-06 04:05 | -32.10443 | 115.91705 | 3039 ft | 204 kts | 17° |
| 2026-05-06 04:05 | -32.09113 | 115.92085 | 2799 ft | 188 kts | 17° |
| 2026-05-06 04:06 | -32.07917 | 115.92432 | 2528 ft | 166 kts | 18° |
| 2026-05-06 04:06 | -32.06865 | 115.92741 | 2319 ft | 149 kts | 18° |
| 2026-05-06 04:06 | -32.05895 | 115.93035 | 2116 ft | 141 kts | 18° |
| 2026-05-06 04:06 | -32.04942 | 115.93312 | 1902 ft | 141 kts | 19° |
| 2026-05-06 04:07 | -32.03976 | 115.93595 | 1744 ft | 145 kts | 19° |
| 2026-05-06 04:07 | -32.03011 | 115.93875 | 1542 ft | 140 kts | 18° |
| 2026-05-06 04:07 | -32.02068 | 115.94151 | 1354 ft | 144 kts | 19° |
| 2026-05-06 04:07 | -32.01085 | 115.94454 | 1173 ft | 143 kts | 19° |
| 2026-05-06 04:08 | -32.00126 | 115.94720 | 969 ft | 139 kts | 19° |
| 2026-05-06 04:08 | -31.99181 | 115.95007 | 783 ft | 142 kts | 20° |
| 2026-05-06 04:08 | -31.98215 | 115.95263 | 600 ft | 145 kts | 18° |
| 2026-05-06 04:08 | -31.97275 | 115.95534 | 355 ft | 140 kts | 21° |
| 2026-05-06 04:09 | -31.96305 | 115.95832 | 178 ft | 143 kts | 20° |
| 2026-05-06 04:09 | -31.95381 | 115.96120 | 69 ft | 119 kts | 18° |
| 2026-05-06 04:09 | -31.95195 | 115.96193 | 65 ft | 95 kts | 19° |
| 2026-05-06 04:09 | -31.95180 | 115.96200 | 67 ft | 93 kts | 19° |
| 2026-05-06 04:10 | -31.94830 | 115.96282 | 63 ft | 25 kts | 10° |
| 2026-05-06 04:10 | -31.94649 | 115.96325 | 58 ft | 27 kts | 13° |
| 2026-05-06 04:10 | -31.94487 | 115.96356 | 62 ft | 21 kts | 342° |
| 2026-05-06 04:10 | -31.94418 | 115.96234 | 58 ft | 16 kts | 287° |
| 2026-05-06 04:11 | -31.94359 | 115.96183 | 61 ft | 10 kts | 352° |
| 2026-05-06 04:11 | -31.94280 | 115.96195 | 61 ft | 14 kts | 13° |
| 2026-05-06 04:11 | -31.94163 | 115.96229 | 60 ft | 20 kts | 14° |
| 2026-05-06 04:11 | -31.94008 | 115.96258 | 58 ft | 25 kts | 350° |
| 2026-05-06 04:12 | -31.93843 | 115.96213 | 54 ft | 23 kts | 346° |
| 2026-05-06 04:12 | -31.93687 | 115.96180 | 56 ft | 19 kts | 356° |
| 2026-05-06 04:12 | -31.93588 | 115.96199 | 53 ft | 11 kts | 13° |
| 2026-05-06 04:12 | -31.93516 | 115.96231 | 53 ft | 12 kts | 25° |
| 2026-05-06 04:13 | -31.93436 | 115.96276 | 54 ft | 14 kts | 25° |
| 2026-05-06 04:13 | -31.93373 | 115.96301 | 50 ft | 3 kts | 353° |
| 2026-05-06 04:13 | -31.93363 | 115.96290 | 54 ft | 5 kts | 310° |
| 2026-05-06 04:13 | -31.93350 | 115.96254 | 54 ft | 2 kts | 287° |
| 2026-05-06 04:14 | -31.93342 | 115.96222 | 58 ft | 2 kts | 285° |
| 2026-05-06 04:14 | -31.93342 | 115.96221 | 58 ft | 0 kts | 284° |
| 2026-05-06 04:17 | 49.00204 | 2.56824 | 355 ft | 0 kts | 355° |